Time;durP1;ratioP1;P1;durP2;ratioP2;P2;SDS_P1;SDS_P2;PMS_P1;PMS_P2;Temp;Humidity;BMP_temperature;BMP_pressure;BME280_temperature;BME280_humidity;BME280_pressure;Samples;Min_cycle;Max_cycle;Signal;HPM_P1;HPM_P2
2022/10/24 00:00:43;;;;;;;8.45;2.85;;;12.50;99.90;;;;;;4993785;28;20031;-93
2022/10/24 00:03:10;;;;;;;3.88;2.00;;;12.50;99.90;;;;;;4998905;28;20049;-93
2022/10/24 00:05:36;;;;;;;3.13;1.00;;;12.50;99.90;;;;;;4993685;28;20039;-92
2022/10/24 00:08:02;;;;;;;1.85;1.35;;;12.50;99.90;;;;;;4987900;28;20030;-94
2022/10/24 00:10:28;;;;;;;2.75;1.15;;;12.50;99.90;;;;;;4996931;28;20153;-94
2022/10/24 00:12:54;;;;;;;3.35;1.50;;;12.50;99.90;;;;;;4998565;28;20038;-93
2022/10/24 00:15:20;;;;;;;1.48;1.13;;;12.50;99.90;;;;;;4996087;28;20054;-94
2022/10/24 00:17:45;;;;;;;0.85;0.77;;;12.50;99.90;;;;;;4986378;28;20369;-93
2022/10/24 00:20:12;;;;;;;2.45;1.00;;;12.60;99.90;;;;;;4982272;28;20037;-94
2022/10/24 00:22:38;;;;;;;3.08;0.80;;;12.60;99.90;;;;;;4978514;28;20036;-93
2022/10/24 00:25:04;;;;;;;2.40;1.40;;;12.60;99.90;;;;;;4978063;28;20022;-94
2022/10/24 00:27:30;;;;;;;2.35;0.70;;;12.60;99.90;;;;;;4980580;28;20161;-96
2022/10/24 00:29:55;;;;;;;1.52;1.23;;;12.60;99.90;;;;;;4988373;28;20030;-95
2022/10/24 00:32:21;;;;;;;1.77;0.65;;;12.60;99.90;;;;;;4985481;28;20031;-94
2022/10/24 00:34:47;;;;;;;4.78;1.25;;;12.60;99.90;;;;;;4980306;28;20034;-94
2022/10/24 00:37:13;;;;;;;3.50;0.90;;;12.60;99.90;;;;;;4977726;28;20034;-95
2022/10/24 00:39:38;;;;;;;1.30;0.70;;;12.60;99.90;;;;;;4976340;28;20485;-94
2022/10/24 00:42:04;;;;;;;1.95;0.80;;;12.60;99.90;;;;;;4977046;28;20383;-94
2022/10/24 00:44:32;;;;;;;1.52;0.90;;;12.60;99.90;;;;;;4976388;28;20034;-94
2022/10/24 00:47:12;;;;;;;2.60;1.17;;;12.60;99.90;;;;;;4975924;28;20034;-94
2022/10/24 00:49:52;;;;;;;2.72;0.73;;;12.60;99.90;;;;;;4977899;28;20117;-94
2022/10/24 00:52:24;;;;;;;3.57;0.93;;;12.60;99.90;;;;;;4975966;28;20081;-95
2022/10/24 00:54:52;;;;;;;10.85;1.10;;;12.60;99.90;;;;;;4975936;28;20290;-94
2022/10/24 00:57:24;;;;;;;1.38;0.90;;;12.50;99.90;;;;;;4976141;28;20026;-94
2022/10/24 00:59:56;;;;;;;3.60;1.05;;;12.50;99.90;;;;;;4975521;28;20142;-96
2022/10/24 01:02:24;;;;;;;3.92;1.73;;;12.50;99.90;;;;;;4979810;28;20022;-95
2022/10/24 01:04:53;;;;;;;3.47;1.58;;;12.50;99.90;;;;;;4980054;28;20038;-95
2022/10/24 01:07:36;;;;;;;3.80;1.60;;;12.50;99.90;;;;;;4979655;28;20026;-95
2022/10/24 01:10:07;;;;;;;3.70;1.48;;;12.50;99.90;;;;;;4983741;28;20030;-96
2022/10/24 01:13:11;;;;;;;5.13;1.83;;;12.50;99.90;;;;;;4989075;28;20022;-95
2022/10/24 01:16:09;;;;;;;5.63;2.00;;;12.50;99.90;;;;;;4997674;28;20035;-96
2022/10/24 01:18:55;;;;;;;4.75;2.53;;;12.40;99.90;;;;;;4982511;28;20068;-94
2022/10/24 01:21:58;;;;;;;5.18;2.60;;;12.40;99.90;;;;;;4981198;28;20030;-95
2022/10/24 01:24:57;;;;;;;6.90;2.83;;;12.50;99.90;;;;;;4982091;28;20050;-94
2022/10/24 01:27:49;;;;;;;5.10;2.53;;;12.40;99.90;;;;;;4981612;28;20038;-94
2022/10/24 01:30:16;;;;;;;7.18;2.42;;;12.40;99.90;;;;;;4999229;28;20077;-94
2022/10/24 01:33:15;;;;;;;3.47;2.30;;;12.40;99.90;;;;;;4998330;28;20026;-95
2022/10/24 01:36:00;;;;;;;8.68;3.50;;;12.40;99.90;;;;;;4998013;28;20158;-95
2022/10/24 01:38:45;;;;;;;11.95;4.07;;;12.30;99.90;;;;;;4996788;28;20030;-95
2022/10/24 01:41:23;;;;;;;7.82;4.30;;;12.30;99.90;;;;;;4996732;28;20026;-95
2022/10/24 01:43:54;;;;;;;8.35;3.88;;;12.30;99.90;;;;;;4994922;28;20042;-94
2022/10/24 01:46:26;;;;;;;6.25;3.45;;;12.30;99.90;;;;;;4979466;28;20056;-93
2022/10/24 01:49:03;;;;;;;5.88;3.20;;;12.30;99.90;;;;;;4979379;28;20049;-95
2022/10/24 01:51:32;;;;;;;7.25;3.60;;;12.30;99.90;;;;;;4996335;28;20026;-95
2022/10/24 01:54:00;;;;;;;6.68;2.83;;;12.20;99.90;;;;;;4979845;28;20046;-95
2022/10/24 01:56:26;;;;;;;5.95;2.65;;;12.30;99.90;;;;;;4988635;28;20050;-94
2022/10/24 01:58:52;;;;;;;2.28;1.77;;;12.30;99.90;;;;;;4990917;28;20023;-95
2022/10/24 02:01:23;;;;;;;3.58;2.10;;;12.20;99.90;;;;;;4979358;28;20511;-95
2022/10/24 02:03:59;;;;;;;2.33;1.63;;;12.30;99.90;;;;;;4977227;28;20074;-94
2022/10/24 02:06:33;;;;;;;6.05;1.90;;;12.30;99.90;;;;;;4976812;28;20030;-94
2022/10/24 02:09:06;;;;;;;2.13;1.75;;;12.20;99.90;;;;;;4976460;28;20043;-95
2022/10/24 02:11:33;;;;;;;3.20;2.15;;;12.20;99.90;;;;;;4977459;28;20041;-94
2022/10/24 02:14:08;;;;;;;1.98;1.63;;;12.20;99.90;;;;;;4978265;28;20046;-96
2022/10/24 02:16:34;;;;;;;7.18;4.05;;;12.20;99.90;;;;;;4979070;28;20038;-95
2022/10/24 02:18:59;;;;;;;3.13;2.17;;;12.20;99.90;;;;;;4960534;28;20500;-95
2022/10/24 02:21:38;;;;;;;11.35;5.07;;;12.20;99.90;;;;;;4977588;28;20031;-95
2022/10/24 02:24:22;;;;;;;6.85;5.05;;;12.20;99.90;;;;;;4976055;28;20023;-94
2022/10/24 02:26:54;;;;;;;4.00;3.13;;;12.20;99.90;;;;;;4977077;28;20031;-95
2022/10/24 02:29:45;;;;;;;8.32;6.30;;;12.20;99.90;;;;;;4976675;28;20034;-95
2022/10/24 02:32:20;;;;;;;9.43;6.90;;;12.20;99.90;;;;;;4976597;28;20038;-95
2022/10/24 02:34:46;;;;;;;9.35;6.57;;;12.20;99.90;;;;;;4976632;28;20030;-94
2022/10/24 02:37:14;;;;;;;11.63;7.57;;;12.20;99.90;;;;;;4975276;28;20035;-94
2022/10/24 02:39:44;;;;;;;7.30;5.50;;;12.20;99.90;;;;;;4975267;28;20027;-95
2022/10/24 02:42:11;;;;;;;7.87;5.47;;;12.20;99.90;;;;;;4974840;28;20042;-94
2022/10/24 02:44:39;;;;;;;12.88;8.93;;;12.20;99.90;;;;;;4974420;28;20030;-94
2022/10/24 02:47:06;;;;;;;15.55;10.00;;;12.20;99.90;;;;;;4980782;28;20022;-95
2022/10/24 02:49:32;;;;;;;15.13;9.82;;;12.20;99.90;;;;;;4980490;28;20034;-94
2022/10/24 02:51:59;;;;;;;15.95;8.00;;;12.20;99.90;;;;;;4977354;28;20033;-95
2022/10/24 02:54:24;;;;;;;15.98;9.75;;;12.20;99.90;;;;;;4989686;28;20045;-94
2022/10/24 02:56:55;;;;;;;17.45;10.40;;;12.20;99.90;;;;;;4997747;28;20038;-96
2022/10/24 02:59:21;;;;;;;;;;;12.20;99.90;;;;;;4998896;28;20113;-95
2022/10/24 03:01:46;;;;;;;19.15;11.32;;;12.20;99.90;;;;;;4997425;28;19951;-96
2022/10/24 03:04:12;;;;;;;16.17;10.50;;;12.20;99.90;;;;;;5024965;28;20030;-94
2022/10/24 03:06:38;;;;;;;17.40;10.88;;;12.20;99.90;;;;;;5036169;28;20093;-94
2022/10/24 03:09:03;;;;;;;17.08;10.68;;;12.20;99.90;;;;;;5021603;28;20065;-95
2022/10/24 03:11:29;;;;;;;13.23;8.38;;;12.20;99.90;;;;;;5014282;28;20056;-94
2022/10/24 03:13:55;;;;;;;19.60;11.13;;;12.20;99.90;;;;;;4997803;28;20030;-94
2022/10/24 03:16:20;;;;;;;22.30;11.88;;;12.20;99.90;;;;;;4982367;28;20034;-94
2022/10/24 03:18:46;;;;;;;10.60;7.28;;;12.10;99.90;;;;;;4978246;28;20041;-94
2022/10/24 03:21:12;;;;;;;11.48;7.35;;;12.10;99.90;;;;;;4979417;28;20034;-95
2022/10/24 03:23:37;;;;;;;20.45;11.25;;;12.10;99.90;;;;;;4977619;28;20035;-96
2022/10/24 03:26:03;;;;;;;22.15;12.23;;;12.10;99.90;;;;;;4977378;28;20492;-95
2022/10/24 03:28:29;;;;;;;20.17;11.95;;;12.10;99.90;;;;;;4978169;28;20041;-95
2022/10/24 03:30:55;;;;;;;22.17;11.88;;;12.10;99.90;;;;;;4977893;28;20030;-95
2022/10/24 03:33:21;;;;;;;21.90;11.65;;;12.10;99.90;;;;;;4977582;28;20026;-95
2022/10/24 03:35:52;;;;;;;13.93;8.32;;;12.10;99.90;;;;;;4980094;28;20098;-95
2022/10/24 03:38:18;;;;;;;;;;;12.10;99.90;;;;;;4987616;28;20113;-95
2022/10/24 03:40:43;;;;;;;17.70;10.07;;;12.10;99.90;;;;;;4990911;28;20414;-94
2022/10/24 03:43:09;;;;;;;18.15;10.15;;;12.10;99.90;;;;;;5000601;28;20087;-93
2022/10/24 03:45:36;;;;;;;23.00;10.73;;;12.10;99.90;;;;;;4990018;28;20030;-95
2022/10/24 03:48:02;;;;;;;18.08;8.23;;;12.10;99.90;;;;;;4980412;28;20034;-95
2022/10/24 03:50:28;;;;;;;17.52;9.02;;;12.10;99.90;;;;;;4978111;28;20460;-94
2022/10/24 03:52:54;;;;;;;15.20;8.63;;;12.10;99.90;;;;;;4978025;28;20057;-94
2022/10/24 03:55:19;;;;;;;12.43;6.57;;;12.10;99.90;;;;;;4993949;28;20033;-94
2022/10/24 03:57:46;;;;;;;11.38;6.85;;;12.10;99.90;;;;;;4995011;28;20181;-95
2022/10/24 04:00:12;;;;;;;10.80;6.47;;;12.10;99.90;;;;;;4994377;28;20026;-94
2022/10/24 04:02:38;;;;;;;6.97;4.35;;;12.10;99.90;;;;;;4996204;28;20512;-94
2022/10/24 04:05:05;;;;;;;7.45;4.47;;;12.10;99.90;;;;;;4993610;28;20122;-95
2022/10/24 04:07:30;;;;;;;10.25;3.83;;;12.10;99.90;;;;;;4996505;28;20022;-95
2022/10/24 04:09:56;;;;;;;7.13;3.75;;;12.10;99.90;;;;;;4995476;28;20126;-94
2022/10/24 04:12:23;;;;;;;5.70;3.45;;;12.10;99.90;;;;;;4994716;28;20647;-95
2022/10/24 04:14:48;;;;;;;9.38;3.38;;;12.10;99.90;;;;;;4995507;28;20037;-96
2022/10/24 04:17:14;;;;;;;7.68;3.33;;;12.10;99.90;;;;;;4997933;28;20129;-96
2022/10/24 04:19:40;;;;;;;7.93;3.55;;;12.10;99.90;;;;;;5002195;28;20034;-94
2022/10/24 04:22:06;;;;;;;8.85;3.28;;;12.10;99.90;;;;;;5000470;28;20079;-94
2022/10/24 04:24:33;;;;;;;9.23;4.43;;;12.10;99.90;;;;;;5001782;28;20018;-96
2022/10/24 04:26:58;;;;;;;17.50;4.88;;;12.10;99.90;;;;;;5000008;28;20022;-95
2022/10/24 04:29:24;;;;;;;25.02;6.90;;;12.10;99.90;;;;;;4999758;28;20088;-94
2022/10/24 04:31:50;;;;;;;17.35;7.40;;;12.10;99.90;;;;;;4999171;28;20518;-96
2022/10/24 04:34:16;;;;;;;18.58;5.30;;;12.10;99.90;;;;;;5000772;28;20030;-93
2022/10/24 04:36:41;;;;;;;18.38;5.70;;;12.10;99.90;;;;;;5003732;28;20041;-95
2022/10/24 04:39:07;;;;;;;30.45;6.80;;;12.10;99.90;;;;;;5003324;28;20030;-95
2022/10/24 04:41:33;;;;;;;25.63;6.32;;;12.00;99.90;;;;;;5003973;28;20026;-95
2022/10/24 04:43:59;;;;;;;25.73;6.43;;;12.00;99.90;;;;;;5003475;28;20046;-94
2022/10/24 04:46:24;;;;;;;25.88;5.45;;;12.00;99.90;;;;;;5008266;28;20476;-96
2022/10/24 04:48:50;;;;;;;21.52;5.35;;;12.00;99.90;;;;;;5003431;28;20101;-94
2022/10/24 04:51:16;;;;;;;24.70;6.03;;;12.00;99.90;;;;;;5004103;28;20026;-96
2022/10/24 04:53:42;;;;;;;23.05;5.65;;;12.00;99.90;;;;;;5003326;28;20046;-93
2022/10/24 04:56:07;;;;;;;28.52;6.35;;;12.00;99.90;;;;;;4986763;28;20046;-94
2022/10/24 04:58:34;;;;;;;26.70;6.68;;;12.00;99.90;;;;;;4986832;28;20113;-94
2022/10/24 05:01:00;;;;;;;19.33;5.10;;;12.00;99.90;;;;;;4989391;28;20014;-93
2022/10/24 05:03:26;;;;;;;20.17;5.60;;;12.00;99.90;;;;;;4989256;28;20067;-94
2022/10/24 05:05:51;;;;;;;16.52;4.35;;;12.00;99.90;;;;;;4989165;28;20088;-93
2022/10/24 05:08:17;;;;;;;27.33;5.30;;;12.00;99.90;;;;;;4995845;28;20033;-93
2022/10/24 05:10:43;;;;;;;35.08;4.95;;;12.00;99.90;;;;;;4996309;28;20046;-93
2022/10/24 05:13:09;;;;;;;24.98;5.07;;;12.00;99.90;;;;;;4993283;28;20034;-96
2022/10/24 05:15:36;;;;;;;18.88;4.22;;;12.00;99.90;;;;;;5007073;28;20042;-94
2022/10/24 05:18:01;;;;;;;17.27;4.20;;;12.00;99.90;;;;;;4988897;28;20025;-94
2022/10/24 05:20:27;;;;;;;25.00;5.00;;;12.00;99.90;;;;;;4988698;28;20054;-95
2022/10/24 05:22:53;;;;;;;28.33;5.53;;;12.00;99.90;;;;;;4985052;28;20471;-96
2022/10/24 05:25:19;;;;;;;30.25;5.75;;;12.00;99.90;;;;;;4990102;28;20090;-94
2022/10/24 05:27:44;;;;;;;19.77;4.68;;;12.00;99.90;;;;;;5000130;28;20053;-95
2022/10/24 05:30:10;;;;;;;16.13;5.03;;;12.00;99.90;;;;;;4996333;28;20030;-94
2022/10/24 05:32:36;;;;;;;22.30;4.93;;;12.00;99.90;;;;;;4991137;28;20365;-95
2022/10/24 05:35:03;;;;;;;24.67;4.95;;;12.00;99.90;;;;;;4987605;28;20090;-95
2022/10/24 05:37:29;;;;;;;21.90;6.25;;;12.00;99.90;;;;;;4986654;28;20031;-96
2022/10/24 05:39:54;;;;;;;25.25;5.85;;;12.00;99.90;;;;;;4988089;28;20031;-95
2022/10/24 05:42:20;;;;;;;19.20;6.13;;;12.00;99.90;;;;;;4988248;28;20034;-95
2022/10/24 05:44:46;;;;;;;29.52;7.30;;;12.00;99.90;;;;;;4987037;28;20022;-96
2022/10/24 05:47:12;;;;;;;20.50;7.18;;;12.00;99.90;;;;;;4989652;28;20173;-96
2022/10/24 05:49:37;;;;;;;21.25;7.97;;;12.00;99.90;;;;;;4985920;28;20054;-96
2022/10/24 05:52:03;;;;;;;31.13;11.13;;;12.00;99.90;;;;;;4987511;28;20037;-96
2022/10/24 05:54:31;;;;;;;36.17;11.75;;;12.00;99.90;;;;;;5015157;28;20045;-96
2022/10/24 05:56:57;;;;;;;27.33;8.52;;;12.00;99.90;;;;;;5009952;28;20026;-96
2022/10/24 05:59:23;;;;;;;29.20;9.80;;;12.00;99.90;;;;;;5007566;28;20053;-96
2022/10/24 06:01:48;;;;;;;26.92;8.82;;;11.90;99.90;;;;;;5008638;28;20404;-95
2022/10/24 06:04:17;;;;;;;28.60;9.23;;;11.90;99.90;;;;;;5010872;28;20108;-95
2022/10/24 06:06:44;;;;;;;30.42;9.95;;;11.90;99.90;;;;;;5012771;28;20030;-95
2022/10/24 06:09:11;;;;;;;24.73;8.20;;;11.90;99.90;;;;;;5020935;28;20109;-95
2022/10/24 06:11:36;;;;;;;44.55;9.38;;;11.90;99.90;;;;;;4993828;28;20072;-95
2022/10/24 06:14:06;;;;;;;28.00;7.50;;;11.90;99.90;;;;;;5013852;28;20014;-94
2022/10/24 06:16:33;;;;;;;29.20;7.35;;;12.00;99.90;;;;;;5011713;28;20049;-95
2022/10/24 06:18:58;;;;;;;35.78;7.63;;;12.00;99.90;;;;;;5018847;28;20034;-93
2022/10/24 06:21:24;;;;;;;28.60;7.30;;;12.00;99.90;;;;;;5000409;28;20050;-96
2022/10/24 06:23:51;;;;;;;31.08;7.00;;;11.90;99.90;;;;;;5000917;28;20073;-94
2022/10/24 06:26:17;;;;;;;20.13;6.47;;;12.00;99.90;;;;;;5001693;28;20042;-94
2022/10/24 06:28:43;;;;;;;26.50;6.80;;;12.00;99.90;;;;;;4995483;28;20058;-94
2022/10/24 06:31:12;;;;;;;29.38;6.18;;;12.00;99.90;;;;;;5003088;28;20111;-96
2022/10/24 06:33:39;;;;;;;20.05;4.80;;;12.00;99.90;;;;;;4991431;28;20033;-96
2022/10/24 06:36:08;;;;;;;18.88;4.90;;;12.10;99.90;;;;;;4998922;28;20026;-96
2022/10/24 06:38:35;;;;;;;15.75;4.93;;;12.10;99.90;;;;;;5014877;28;20026;-96
2022/10/24 06:41:10;;;;;;;18.50;4.38;;;12.10;99.90;;;;;;5015338;28;20130;-94
2022/10/24 06:43:36;;;;;;;27.95;4.55;;;12.10;99.90;;;;;;5009984;28;20033;-96
2022/10/24 06:46:14;;;;;;;22.58;4.70;;;12.10;99.90;;;;;;5010232;28;20026;-96
2022/10/24 06:48:40;;;;;;;17.42;4.18;;;12.10;99.90;;;;;;4992012;28;20026;-96
2022/10/24 06:51:08;;;;;;;20.17;4.68;;;12.10;99.90;;;;;;4995579;28;20048;-96
2022/10/24 06:53:34;;;;;;;21.35;4.25;;;12.00;99.90;;;;;;4993207;28;20052;-96
2022/10/24 06:56:05;;;;;;;16.58;4.78;;;12.00;99.90;;;;;;4992462;28;20035;-96
2022/10/24 06:58:36;;;;;;;23.50;5.00;;;12.00;99.90;;;;;;4974606;28;20104;-96
2022/10/24 07:01:13;;;;;;;;;;;11.90;99.90;;;;;;4971901;28;20031;-96
2022/10/24 07:03:38;;;;;;;14.77;3.85;;;12.00;99.90;;;;;;4977037;28;19910;-96
2022/10/24 07:06:12;;;;;;;20.20;4.10;;;11.90;99.90;;;;;;4975116;28;20027;-96
2022/10/24 07:08:38;;;;;;;19.85;4.30;;;11.90;99.90;;;;;;4975120;28;20027;-96
2022/10/24 07:11:04;;;;;;;16.63;3.00;;;11.90;99.90;;;;;;4981358;28;20074;-94
2022/10/24 07:13:30;;;;;;;11.25;2.90;;;11.90;99.90;;;;;;4982659;28;20019;-94
2022/10/24 07:15:55;;;;;;;15.63;2.75;;;11.90;99.90;;;;;;4980046;28;20126;-96
2022/10/24 07:18:21;;;;;;;20.60;4.00;;;11.80;99.90;;;;;;4977248;28;20026;-95
2022/10/24 07:20:47;;;;;;;16.63;2.95;;;11.90;99.90;;;;;;4976125;28;20039;-96
2022/10/24 07:23:13;;;;;;;15.63;2.60;;;11.80;99.90;;;;;;4989830;28;20035;-96
2022/10/24 07:25:40;;;;;;;14.55;3.72;;;11.80;99.90;;;;;;4987731;28;20029;-95
2022/10/24 07:28:09;;;;;;;12.02;2.53;;;11.90;99.90;;;;;;4973205;28;20042;-96
2022/10/24 07:30:36;;;;;;;22.05;3.00;;;11.80;99.90;;;;;;4975388;28;20062;-96
2022/10/24 07:33:02;;;;;;;18.80;3.20;;;11.80;99.90;;;;;;4975236;28;20034;-96
2022/10/24 07:35:30;;;;;;;17.50;3.08;;;11.90;99.90;;;;;;4974930;28;20034;-96
2022/10/24 07:37:55;;;;;;;20.33;3.03;;;11.80;99.90;;;;;;4992636;28;20052;-96
2022/10/24 07:40:21;;;;;;;16.42;2.42;;;11.90;99.90;;;;;;4992740;28;20094;-96
2022/10/24 07:42:47;;;;;;;17.42;2.65;;;11.90;99.90;;;;;;4991505;28;20093;-96
2022/10/24 07:45:13;;;;;;;23.23;2.97;;;11.90;99.90;;;;;;4989669;28;20045;-96
2022/10/24 07:47:39;;;;;;;11.52;3.20;;;11.90;99.90;;;;;;4990437;28;20468;-96
2022/10/24 07:50:05;;;;;;;13.90;3.58;;;11.90;99.90;;;;;;4992568;28;20019;-95
2022/10/24 07:52:32;;;;;;;18.33;3.10;;;11.90;99.90;;;;;;4992954;28;20507;-96
2022/10/24 07:54:58;;;;;;;14.32;2.30;;;11.90;99.90;;;;;;4995148;28;20046;-96
2022/10/24 07:57:24;;;;;;;12.38;2.97;;;11.90;99.90;;;;;;4993508;28;20041;-96
2022/10/24 07:59:50;;;;;;;12.90;2.33;;;11.90;99.90;;;;;;4996151;28;20062;-95
2022/10/24 08:02:16;;;;;;;18.20;2.78;;;11.90;99.90;;;;;;4995755;28;20034;-95
2022/10/24 08:04:42;;;;;;;12.80;2.47;;;12.00;99.90;;;;;;5000674;28;20018;-94
2022/10/24 08:07:14;;;;;;;16.48;3.08;;;12.00;99.90;;;;;;5014531;28;20034;-93
2022/10/24 08:09:45;;;;;;;20.35;3.22;;;12.00;99.90;;;;;;4998848;28;20041;-93
2022/10/24 08:12:14;;;;;;;19.17;2.83;;;12.00;99.90;;;;;;5000978;28;20015;-93
2022/10/24 08:14:41;;;;;;;14.52;2.88;;;12.00;99.90;;;;;;5001073;28;20006;-92
2022/10/24 08:17:08;;;;;;;17.52;2.60;;;12.00;99.90;;;;;;4982331;28;20018;-92
2022/10/24 08:19:34;;;;;;;17.80;2.90;;;12.00;99.90;;;;;;4999503;28;20014;-93
2022/10/24 08:22:00;;;;;;;16.83;2.97;;;12.00;99.90;;;;;;5001025;28;20022;-92
2022/10/24 08:24:28;;;;;;;19.05;2.47;;;12.00;99.90;;;;;;5000987;28;20991;-94
2022/10/24 08:26:55;;;;;;;15.50;2.30;;;12.10;99.90;;;;;;5001006;28;20048;-94
2022/10/24 08:29:22;;;;;;;13.00;2.38;;;12.10;99.90;;;;;;5000659;28;20034;-94
2022/10/24 08:31:56;;;;;;;19.65;2.45;;;12.10;99.90;;;;;;5000583;28;20010;-95
2022/10/24 08:34:22;;;;;;;15.70;2.03;;;12.10;99.90;;;;;;5000785;28;20021;-95
2022/10/24 08:36:49;;;;;;;17.25;2.03;;;12.10;99.90;;;;;;5011637;28;20035;-96
2022/10/24 08:39:16;;;;;;;10.98;2.15;;;12.20;99.90;;;;;;5000868;28;20026;-94
2022/10/24 08:41:49;;;;;;;17.25;4.22;;;12.20;99.90;;;;;;5017662;28;20113;-94
2022/10/24 08:44:23;;;;;;;12.77;2.28;;;12.30;99.90;;;;;;5000443;28;20046;-94
2022/10/24 08:47:27;;;;;;;16.08;2.97;;;12.30;99.90;;;;;;4993021;28;20026;-95
2022/10/24 08:50:15;;;;;;;15.02;2.20;;;12.40;99.90;;;;;;5034727;23;20042;-95
2022/10/24 08:52:43;;;;;;;12.27;2.40;;;12.50;99.90;;;;;;5037156;28;20018;-92
2022/10/24 08:55:16;;;;;;;9.85;2.60;;;12.50;99.90;;;;;;5037506;28;20064;-90
2022/10/24 08:57:45;;;;;;;13.32;2.63;;;12.60;99.90;;;;;;5037924;28;20010;-95
2022/10/24 09:00:22;;;;;;;20.23;1.98;;;12.70;99.90;;;;;;5019903;28;20077;-92
2022/10/24 09:03:05;;;;;;;15.93;2.25;;;12.80;99.90;;;;;;5019634;28;20014;-92
2022/10/24 09:05:39;;;;;;;12.55;2.42;;;12.80;99.90;;;;;;5018931;28;20026;-93
2022/10/24 09:08:39;;;;;;;12.13;2.25;;;13.00;99.90;;;;;;5019169;28;20086;-95
2022/10/24 09:11:09;;;;;;;18.40;2.10;;;13.10;99.90;;;;;;5033463;28;20038;-92
2022/10/24 09:13:36;;;;;;;9.55;1.95;;;13.20;99.90;;;;;;5035709;28;20018;-93
2022/10/24 09:16:02;;;;;;;13.77;2.55;;;13.20;99.90;;;;;;5018307;28;20053;-92
2022/10/24 09:18:38;;;;;;;13.32;2.17;;;13.30;99.90;;;;;;5018756;28;20006;-91
2022/10/24 09:21:07;;;;;;;12.55;2.20;;;13.30;99.90;;;;;;5035809;28;20045;-92
2022/10/24 09:23:37;;;;;;;14.75;2.13;;;13.30;99.90;;;;;;5021805;28;19998;-91
2022/10/24 09:26:12;;;;;;;16.60;2.10;;;13.30;99.90;;;;;;5022824;28;20026;-93
2022/10/24 09:28:39;;;;;;;12.40;2.17;;;13.30;99.90;;;;;;5023547;28;20038;-92
2022/10/24 09:31:16;;;;;;;19.77;2.65;;;13.30;99.90;;;;;;5022868;28;20147;-92
2022/10/24 09:33:44;;;;;;;16.52;2.15;;;13.30;99.90;;;;;;5023358;28;20009;-91
2022/10/24 09:36:15;;;;;;;14.98;2.30;;;13.30;99.90;;;;;;5039542;28;20022;-95
2022/10/24 09:38:42;;;;;;;11.13;2.22;;;13.40;99.90;;;;;;5040462;28;20077;-93
2022/10/24 09:41:21;;;;;;;12.80;2.90;;;13.40;99.90;;;;;;5023173;28;20030;-93
2022/10/24 09:43:53;;;;;;;9.10;1.70;;;13.50;99.90;;;;;;5019609;28;20097;-94
2022/10/24 09:46:51;;;;;;;14.68;2.10;;;13.70;99.90;;;;;;5020796;28;20022;-95
2022/10/24 09:49:24;;;;;;;8.88;2.13;;;14.10;99.90;;;;;;5020778;28;20096;-94
2022/10/24 09:52:23;;;;;;;16.17;2.25;;;14.40;99.90;;;;;;5019156;28;20014;-95
2022/10/24 09:55:23;;;;;;;17.55;2.25;;;14.50;99.90;;;;;;5019312;28;20022;-95
2022/10/24 09:57:59;;;;;;;17.10;2.17;;;14.70;99.90;;;;;;5017451;28;20072;-96
2022/10/24 10:00:35;;;;;;;17.05;2.92;;;14.70;99.90;;;;;;5021417;28;20010;-96
2022/10/24 10:03:20;;;;;;;14.27;2.85;;;15.00;99.90;;;;;;5021666;28;20017;-94
2022/10/24 10:05:47;;;;;;;8.80;1.75;;;15.10;99.90;;;;;;5014828;28;20028;-94
2022/10/24 10:08:23;;;;;;;8.27;1.42;;;15.20;99.90;;;;;;5017106;28;20045;-94
2022/10/24 10:11:10;;;;;;;15.20;2.72;;;15.20;99.90;;;;;;5033509;28;20022;-95
2022/10/24 10:13:52;;;;;;;12.20;1.80;;;15.30;99.90;;;;;;5019022;28;20034;-96
2022/10/24 10:16:31;;;;;;;16.15;2.15;;;15.40;99.90;;;;;;5019200;28;20076;-96
2022/10/24 10:19:14;;;;;;;15.98;1.98;;;15.50;99.90;;;;;;5021341;28;20113;-96
2022/10/24 10:22:00;;;;;;;11.77;2.33;;;15.70;99.90;;;;;;5016491;28;20010;-96
2022/10/24 10:24:42;;;;;;;14.65;2.63;;;15.90;99.90;;;;;;5015178;28;20022;-94
2022/10/24 10:27:31;;;;;;;12.55;1.80;;;16.20;99.90;;;;;;5017546;28;20033;-92
2022/10/24 10:30:19;;;;;;;10.07;1.98;;;16.40;99.90;;;;;;5020304;28;20042;-95
2022/10/24 10:33:00;;;;;;;13.82;1.90;;;16.60;99.90;;;;;;5016098;28;20033;-94
2022/10/24 10:35:38;;;;;;;;;;;16.60;99.90;;;;;;5020615;28;20030;-93
2022/10/24 10:38:22;;;;;;;12.48;1.70;;;16.60;99.90;;;;;;5022801;28;19925;-94
2022/10/24 10:41:07;;;;;;;10.35;1.55;;;16.60;99.90;;;;;;5021366;28;20058;-95
2022/10/24 10:43:47;;;;;;;12.40;1.80;;;16.40;99.90;;;;;;5022478;28;20025;-92
2022/10/24 10:46:19;;;;;;;17.48;2.28;;;16.30;99.90;;;;;;5021139;28;20042;-93
2022/10/24 10:49:12;;;;;;;11.60;1.65;;;16.40;99.90;;;;;;5020493;28;20032;-95
2022/10/24 10:51:43;;;;;;;10.32;1.50;;;16.40;99.90;;;;;;5018404;28;20034;-95
2022/10/24 10:54:26;;;;;;;13.18;1.90;;;16.30;99.90;;;;;;5017706;28;20006;-94
2022/10/24 10:57:18;;;;;;;10.73;1.90;;;16.20;99.90;;;;;;5017992;28;20045;-92
2022/10/24 11:00:06;;;;;;;18.45;2.72;;;16.00;99.90;;;;;;5002532;28;20021;-93
2022/10/24 11:02:54;;;;;;;9.57;1.83;;;15.70;99.90;;;;;;5016306;28;20026;-96
2022/10/24 11:05:32;;;;;;;11.63;1.88;;;15.50;99.90;;;;;;5017369;28;20014;-95
2022/10/24 11:08:27;;;;;;;17.90;1.92;;;15.30;99.90;;;;;;5017195;28;20126;-94
2022/10/24 11:11:01;;;;;;;8.77;1.50;;;15.10;99.90;;;;;;5016848;28;20102;-95
2022/10/24 11:13:52;;;;;;;8.50;1.50;;;15.00;99.90;;;;;;5018834;28;20026;-92
2022/10/24 11:16:24;;;;;;;11.85;2.63;;;14.90;99.90;;;;;;5034291;23;20117;-93
2022/10/24 11:18:52;;;;;;;9.77;2.00;;;14.70;99.90;;;;;;5014082;28;20114;-94
2022/10/24 11:21:21;;;;;;;13.05;1.92;;;14.70;99.90;;;;;;5007136;28;20018;-94
2022/10/24 11:23:54;;;;;;;9.52;2.10;;;14.60;99.90;;;;;;5006237;28;20083;-95
2022/10/24 11:26:31;;;;;;;12.32;1.73;;;14.60;99.90;;;;;;5015789;28;20094;-95
2022/10/24 11:29:16;;;;;;;8.98;2.03;;;14.60;99.90;;;;;;5007625;28;20053;-95
2022/10/24 11:32:01;;;;;;;9.02;1.83;;;14.50;99.90;;;;;;5012029;28;20018;-95
2022/10/24 11:34:34;;;;;;;15.02;2.60;;;14.50;99.90;;;;;;5013874;28;20026;-96
2022/10/24 11:37:13;;;;;;;15.77;2.92;;;14.50;99.90;;;;;;5012598;28;20038;-96
2022/10/24 11:39:57;;;;;;;8.25;2.13;;;14.40;99.90;;;;;;5014084;28;20011;-95
2022/10/24 11:42:39;;;;;;;10.10;1.80;;;14.40;99.90;;;;;;5011438;28;20030;-95
2022/10/24 11:45:18;;;;;;;10.80;2.33;;;14.40;99.90;;;;;;5008516;28;20025;-95
2022/10/24 11:47:50;;;;;;;10.68;1.60;;;14.40;99.90;;;;;;5015623;28;20034;-93
2022/10/24 11:50:19;;;;;;;8.65;1.40;;;14.30;99.90;;;;;;5015762;28;20015;-95
2022/10/24 11:52:50;;;;;;;7.65;2.30;;;14.30;99.90;;;;;;5004448;28;20057;-94
2022/10/24 11:55:24;;;;;;;9.52;1.63;;;14.20;99.90;;;;;;5011427;28;20022;-96
2022/10/24 11:58:04;;;;;;;7.03;1.77;;;14.20;99.90;;;;;;5014219;28;20030;-93
2022/10/24 12:01:00;;;;;;;7.13;1.83;;;14.20;99.90;;;;;;5008500;28;20077;-94
2022/10/24 12:03:29;;;;;;;8.75;1.70;;;14.10;99.90;;;;;;5011660;28;20027;-96
2022/10/24 12:06:31;;;;;;;5.22;1.30;;;14.10;99.90;;;;;;5012724;28;20018;-96
2022/10/24 12:09:46;;;;;;;4.88;1.45;;;14.10;99.90;;;;;;5008535;28;20098;-95
2022/10/24 12:12:52;;;;;;;10.48;1.92;;;14.00;99.90;;;;;;4997659;28;20042;-96
2022/10/24 12:15:45;;;;;;;5.95;1.45;;;14.00;99.90;;;;;;4999518;28;20042;-95
2022/10/24 12:18:38;;;;;;;8.60;2.08;;;14.00;99.90;;;;;;5002020;28;20339;-95
2022/10/24 12:21:11;;;;;;;6.40;2.25;;;14.00;99.90;;;;;;4999661;28;20043;-95
2022/10/24 12:23:38;;;;;;;8.13;1.42;;;14.00;99.90;;;;;;4994988;28;20076;-94
2022/10/24 12:26:19;;;;;;;7.68;1.40;;;14.00;99.90;;;;;;5015568;28;20089;-94
2022/10/24 12:29:04;;;;;;;6.30;1.30;;;14.00;99.90;;;;;;5016599;28;20037;-94
2022/10/24 12:31:37;;;;;;;5.10;1.30;;;14.00;99.90;;;;;;5016866;28;20024;-94
2022/10/24 12:34:30;;;;;;;7.72;1.90;;;14.00;99.90;;;;;;5016646;28;20034;-93
2022/10/24 12:37:14;;;;;;;5.07;1.02;;;14.10;99.90;;;;;;5013263;28;20050;-96
2022/10/24 12:39:53;;;;;;;9.45;1.38;;;14.10;99.90;;;;;;5006991;28;20026;-95
2022/10/24 12:42:18;;;;;;;5.45;1.10;;;14.10;99.90;;;;;;5012915;28;20033;-94
2022/10/24 12:44:49;;;;;;;7.03;1.25;;;14.10;99.90;;;;;;5013372;28;20022;-96
2022/10/24 12:47:24;;;;;;;8.15;1.42;;;14.10;99.90;;;;;;5013785;28;20074;-94
2022/10/24 12:49:49;;;;;;;8.45;1.35;;;14.10;99.90;;;;;;5003653;28;20022;-93
2022/10/24 12:52:30;;;;;;;4.93;0.90;;;14.10;99.90;;;;;;5015557;28;20119;-95
2022/10/24 12:54:57;;;;;;;3.92;1.20;;;14.20;99.90;;;;;;4994609;28;20054;-95
2022/10/24 12:57:27;;;;;;;6.03;0.98;;;14.20;99.90;;;;;;5007469;28;20065;-95
2022/10/24 13:00:01;;;;;;;3.95;0.93;;;14.20;99.90;;;;;;5016782;28;20038;-95
2022/10/24 13:02:52;;;;;;;5.05;1.10;;;14.30;99.90;;;;;;5015651;28;20010;-93
2022/10/24 13:05:49;;;;;;;10.20;1.08;;;14.70;99.90;;;;;;5017609;28;20149;-94